sensor_id;sensor_type;location;lat;lon;timestamp;P1;durP1;ratioP1;P2;durP2;ratioP2
73266;SDS011;61495;53.400;7.608;2023-03-14T00:03:36;13.45;;;2.75;;
73266;SDS011;61495;53.400;7.608;2023-03-14T00:06:02;14.05;;;2.58;;
73266;SDS011;61495;53.400;7.608;2023-03-14T00:08:28;11.75;;;2.97;;
73266;SDS011;61495;53.400;7.608;2023-03-14T00:10:53;12.50;;;2.92;;
73266;SDS011;61495;53.400;7.608;2023-03-14T00:13:25;10.50;;;3.80;;
73266;SDS011;61495;53.400;7.608;2023-03-14T00:18:15;10.77;;;2.50;;
73266;SDS011;61495;53.400;7.608;2023-03-14T00:20:41;10.07;;;2.88;;
73266;SDS011;61495;53.400;7.608;2023-03-14T00:23:07;15.40;;;4.18;;
73266;SDS011;61495;53.400;7.608;2023-03-14T00:25:35;16.40;;;3.50;;
73266;SDS011;61495;53.400;7.608;2023-03-14T00:28:00;16.80;;;3.10;;
73266;SDS011;61495;53.400;7.608;2023-03-14T00:30:26;13.70;;;4.05;;
73266;SDS011;61495;53.400;7.608;2023-03-14T00:32:51;15.05;;;3.22;;
73266;SDS011;61495;53.400;7.608;2023-03-14T00:35:16;12.20;;;2.70;;
73266;SDS011;61495;53.400;7.608;2023-03-14T00:37:42;9.93;;;2.80;;
73266;SDS011;61495;53.400;7.608;2023-03-14T00:40:08;12.98;;;2.67;;
73266;SDS011;61495;53.400;7.608;2023-03-14T00:42:34;10.38;;;2.13;;
73266;SDS011;61495;53.400;7.608;2023-03-14T00:45:00;9.98;;;2.88;;
73266;SDS011;61495;53.400;7.608;2023-03-14T00:47:25;19.50;;;3.13;;
73266;SDS011;61495;53.400;7.608;2023-03-14T00:49:51;13.07;;;2.88;;
73266;SDS011;61495;53.400;7.608;2023-03-14T00:52:16;12.40;;;2.90;;
73266;SDS011;61495;53.400;7.608;2023-03-14T00:54:42;13.20;;;3.50;;
73266;SDS011;61495;53.400;7.608;2023-03-14T00:57:07;8.13;;;2.50;;
73266;SDS011;61495;53.400;7.608;2023-03-14T00:59:33;13.02;;;2.83;;
73266;SDS011;61495;53.400;7.608;2023-03-14T01:01:58;13.52;;;3.63;;
73266;SDS011;61495;53.400;7.608;2023-03-14T01:04:24;12.20;;;2.40;;
73266;SDS011;61495;53.400;7.608;2023-03-14T01:06:50;8.15;;;2.53;;
73266;SDS011;61495;53.400;7.608;2023-03-14T01:09:15;10.85;;;3.05;;
73266;SDS011;61495;53.400;7.608;2023-03-14T01:11:47;8.45;;;2.20;;
73266;SDS011;61495;53.400;7.608;2023-03-14T01:14:13;11.88;;;2.92;;
73266;SDS011;61495;53.400;7.608;2023-03-14T01:16:39;11.98;;;2.75;;
73266;SDS011;61495;53.400;7.608;2023-03-14T01:19:04;9.35;;;2.55;;
73266;SDS011;61495;53.400;7.608;2023-03-14T01:21:31;12.20;;;2.78;;
73266;SDS011;61495;53.400;7.608;2023-03-14T01:23:59;12.23;;;2.75;;
73266;SDS011;61495;53.400;7.608;2023-03-14T01:26:26;9.75;;;3.25;;
73266;SDS011;61495;53.400;7.608;2023-03-14T01:28:54;9.45;;;2.83;;
73266;SDS011;61495;53.400;7.608;2023-03-14T01:31:20;13.77;;;3.22;;
73266;SDS011;61495;53.400;7.608;2023-03-14T01:33:46;10.60;;;3.03;;
73266;SDS011;61495;53.400;7.608;2023-03-14T01:36:12;9.55;;;2.58;;
73266;SDS011;61495;53.400;7.608;2023-03-14T01:38:37;9.82;;;2.60;;
73266;SDS011;61495;53.400;7.608;2023-03-14T01:41:05;9.50;;;2.53;;
73266;SDS011;61495;53.400;7.608;2023-03-14T01:43:31;12.88;;;2.95;;
73266;SDS011;61495;53.400;7.608;2023-03-14T01:48:51;10.50;;;2.45;;
73266;SDS011;61495;53.400;7.608;2023-03-14T01:51:22;11.32;;;3.38;;
73266;SDS011;61495;53.400;7.608;2023-03-14T01:53:54;8.07;;;1.80;;
73266;SDS011;61495;53.400;7.608;2023-03-14T01:56:43;9.38;;;2.92;;
73266;SDS011;61495;53.400;7.608;2023-03-14T01:59:14;6.18;;;2.40;;
73266;SDS011;61495;53.400;7.608;2023-03-14T02:01:40;8.18;;;2.65;;
73266;SDS011;61495;53.400;7.608;2023-03-14T02:04:08;8.63;;;2.60;;
73266;SDS011;61495;53.400;7.608;2023-03-14T02:06:46;6.63;;;2.55;;
73266;SDS011;61495;53.400;7.608;2023-03-14T02:09:20;9.02;;;3.08;;
73266;SDS011;61495;53.400;7.608;2023-03-14T02:11:46;6.90;;;2.33;;
73266;SDS011;61495;53.400;7.608;2023-03-14T02:14:15;7.15;;;2.05;;
73266;SDS011;61495;53.400;7.608;2023-03-14T02:16:49;8.77;;;2.72;;
73266;SDS011;61495;53.400;7.608;2023-03-14T02:19:16;6.18;;;2.70;;
73266;SDS011;61495;53.400;7.608;2023-03-14T02:24:27;6.63;;;2.70;;
73266;SDS011;61495;53.400;7.608;2023-03-14T02:27:04;5.93;;;2.40;;
73266;SDS011;61495;53.400;7.608;2023-03-14T02:29:51;6.78;;;2.88;;
73266;SDS011;61495;53.400;7.608;2023-03-14T02:32:19;6.18;;;2.97;;
73266;SDS011;61495;53.400;7.608;2023-03-14T02:34:48;6.32;;;2.40;;
73266;SDS011;61495;53.400;7.608;2023-03-14T02:37:17;8.77;;;2.53;;
73266;SDS011;61495;53.400;7.608;2023-03-14T02:39:46;7.72;;;2.58;;
73266;SDS011;61495;53.400;7.608;2023-03-14T02:42:14;9.02;;;2.85;;
73266;SDS011;61495;53.400;7.608;2023-03-14T02:44:50;6.50;;;3.22;;
73266;SDS011;61495;53.400;7.608;2023-03-14T02:47:18;5.10;;;2.35;;
73266;SDS011;61495;53.400;7.608;2023-03-14T02:49:47;9.85;;;2.85;;
73266;SDS011;61495;53.400;7.608;2023-03-14T02:52:13;8.23;;;2.97;;
73266;SDS011;61495;53.400;7.608;2023-03-14T02:54:38;6.50;;;2.67;;
73266;SDS011;61495;53.400;7.608;2023-03-14T02:57:04;8.50;;;2.85;;
73266;SDS011;61495;53.400;7.608;2023-03-14T02:59:29;7.05;;;2.03;;
73266;SDS011;61495;53.400;7.608;2023-03-14T03:01:54;9.85;;;2.60;;
73266;SDS011;61495;53.400;7.608;2023-03-14T03:04:20;12.38;;;3.67;;
73266;SDS011;61495;53.400;7.608;2023-03-14T03:06:45;6.72;;;2.67;;
73266;SDS011;61495;53.400;7.608;2023-03-14T03:09:10;8.55;;;2.72;;
73266;SDS011;61495;53.400;7.608;2023-03-14T03:11:39;11.63;;;3.22;;
73266;SDS011;61495;53.400;7.608;2023-03-14T03:14:04;8.27;;;2.17;;
73266;SDS011;61495;53.400;7.608;2023-03-14T03:16:30;8.70;;;3.35;;
73266;SDS011;61495;53.400;7.608;2023-03-14T03:18:55;8.10;;;3.60;;
73266;SDS011;61495;53.400;7.608;2023-03-14T03:21:20;6.38;;;2.42;;
73266;SDS011;61495;53.400;7.608;2023-03-14T03:23:48;8.50;;;2.60;;
73266;SDS011;61495;53.400;7.608;2023-03-14T03:26:14;10.48;;;3.25;;
73266;SDS011;61495;53.400;7.608;2023-03-14T03:28:39;7.35;;;2.10;;
73266;SDS011;61495;53.400;7.608;2023-03-14T03:31:11;9.57;;;2.50;;
73266;SDS011;61495;53.400;7.608;2023-03-14T03:33:37;8.95;;;2.95;;
73266;SDS011;61495;53.400;7.608;2023-03-14T03:36:03;7.90;;;2.45;;
73266;SDS011;61495;53.400;7.608;2023-03-14T03:38:28;9.30;;;1.90;;
73266;SDS011;61495;53.400;7.608;2023-03-14T03:40:54;7.88;;;2.25;;
73266;SDS011;61495;53.400;7.608;2023-03-14T03:43:22;8.88;;;2.50;;
73266;SDS011;61495;53.400;7.608;2023-03-14T03:45:47;7.40;;;2.50;;
73266;SDS011;61495;53.400;7.608;2023-03-14T03:48:13;6.82;;;1.63;;
73266;SDS011;61495;53.400;7.608;2023-03-14T03:50:43;8.88;;;2.35;;
73266;SDS011;61495;53.400;7.608;2023-03-14T03:53:09;11.13;;;2.25;;
73266;SDS011;61495;53.400;7.608;2023-03-14T03:55:35;7.60;;;2.30;;
73266;SDS011;61495;53.400;7.608;2023-03-14T03:58:00;7.28;;;1.63;;
73266;SDS011;61495;53.400;7.608;2023-03-14T04:00:25;12.43;;;2.83;;
73266;SDS011;61495;53.400;7.608;2023-03-14T04:02:51;11.45;;;2.05;;
73266;SDS011;61495;53.400;7.608;2023-03-14T04:05:16;9.95;;;2.80;;
73266;SDS011;61495;53.400;7.608;2023-03-14T04:07:42;6.15;;;1.60;;
73266;SDS011;61495;53.400;7.608;2023-03-14T04:10:07;6.45;;;2.45;;
73266;SDS011;61495;53.400;7.608;2023-03-14T04:12:39;10.13;;;2.63;;
73266;SDS011;61495;53.400;7.608;2023-03-14T04:15:05;7.85;;;3.13;;
73266;SDS011;61495;53.400;7.608;2023-03-14T04:17:31;7.25;;;2.60;;
73266;SDS011;61495;53.400;7.608;2023-03-14T04:19:56;7.03;;;2.20;;
73266;SDS011;61495;53.400;7.608;2023-03-14T04:22:21;11.57;;;4.15;;
73266;SDS011;61495;53.400;7.608;2023-03-14T04:24:47;7.18;;;2.40;;
73266;SDS011;61495;53.400;7.608;2023-03-14T04:27:12;13.52;;;3.10;;
73266;SDS011;61495;53.400;7.608;2023-03-14T04:29:39;5.95;;;2.63;;
73266;SDS011;61495;53.400;7.608;2023-03-14T04:32:05;9.30;;;3.63;;
73266;SDS011;61495;53.400;7.608;2023-03-14T04:34:30;6.60;;;2.38;;
73266;SDS011;61495;53.400;7.608;2023-03-14T04:36:55;6.10;;;2.35;;
73266;SDS011;61495;53.400;7.608;2023-03-14T04:39:21;6.07;;;2.55;;
73266;SDS011;61495;53.400;7.608;2023-03-14T04:41:51;9.55;;;2.90;;
73266;SDS011;61495;53.400;7.608;2023-03-14T04:44:17;7.70;;;2.42;;
73266;SDS011;61495;53.400;7.608;2023-03-14T04:46:42;6.85;;;2.13;;
73266;SDS011;61495;53.400;7.608;2023-03-14T04:49:08;6.88;;;2.17;;
73266;SDS011;61495;53.400;7.608;2023-03-14T04:51:33;6.13;;;2.55;;
73266;SDS011;61495;53.400;7.608;2023-03-14T04:53:59;7.15;;;2.78;;
73266;SDS011;61495;53.400;7.608;2023-03-14T04:56:24;8.38;;;3.42;;
73266;SDS011;61495;53.400;7.608;2023-03-14T04:58:50;5.97;;;2.13;;
73266;SDS011;61495;53.400;7.608;2023-03-14T05:01:15;5.88;;;2.55;;
73266;SDS011;61495;53.400;7.608;2023-03-14T05:03:41;10.27;;;2.30;;
73266;SDS011;61495;53.400;7.608;2023-03-14T05:06:06;4.68;;;2.17;;
73266;SDS011;61495;53.400;7.608;2023-03-14T05:08:32;10.98;;;2.33;;
73266;SDS011;61495;53.400;7.608;2023-03-14T05:10:57;7.75;;;2.17;;
73266;SDS011;61495;53.400;7.608;2023-03-14T05:13:23;7.47;;;2.88;;
73266;SDS011;61495;53.400;7.608;2023-03-14T05:15:49;7.20;;;2.05;;
73266;SDS011;61495;53.400;7.608;2023-03-14T05:18:18;6.80;;;3.15;;
73266;SDS011;61495;53.400;7.608;2023-03-14T05:20:43;7.30;;;2.90;;
73266;SDS011;61495;53.400;7.608;2023-03-14T05:23:09;5.38;;;2.45;;
73266;SDS011;61495;53.400;7.608;2023-03-14T05:25:35;11.65;;;3.15;;
73266;SDS011;61495;53.400;7.608;2023-03-14T05:28:00;6.22;;;2.60;;
73266;SDS011;61495;53.400;7.608;2023-03-14T05:30:26;6.30;;;2.63;;
73266;SDS011;61495;53.400;7.608;2023-03-14T05:32:53;8.35;;;2.78;;
73266;SDS011;61495;53.400;7.608;2023-03-14T05:35:18;5.82;;;2.55;;
73266;SDS011;61495;53.400;7.608;2023-03-14T05:37:44;8.30;;;2.80;;
73266;SDS011;61495;53.400;7.608;2023-03-14T05:40:10;4.90;;;2.50;;
73266;SDS011;61495;53.400;7.608;2023-03-14T05:42:39;5.72;;;2.60;;
73266;SDS011;61495;53.400;7.608;2023-03-14T05:45:04;10.50;;;3.53;;
73266;SDS011;61495;53.400;7.608;2023-03-14T05:47:30;6.50;;;2.47;;
73266;SDS011;61495;53.400;7.608;2023-03-14T05:49:55;8.60;;;2.67;;
73266;SDS011;61495;53.400;7.608;2023-03-14T05:52:21;6.35;;;2.55;;
73266;SDS011;61495;53.400;7.608;2023-03-14T05:54:47;6.93;;;2.70;;
73266;SDS011;61495;53.400;7.608;2023-03-14T05:57:12;5.80;;;2.80;;
73266;SDS011;61495;53.400;7.608;2023-03-14T05:59:38;6.70;;;2.47;;
73266;SDS011;61495;53.400;7.608;2023-03-14T06:02:04;10.60;;;2.63;;
73266;SDS011;61495;53.400;7.608;2023-03-14T06:04:29;6.38;;;2.40;;
73266;SDS011;61495;53.400;7.608;2023-03-14T06:06:54;5.55;;;2.28;;
73266;SDS011;61495;53.400;7.608;2023-03-14T06:09:20;5.57;;;2.55;;
73266;SDS011;61495;53.400;7.608;2023-03-14T06:11:52;5.50;;;2.10;;
73266;SDS011;61495;53.400;7.608;2023-03-14T06:14:18;8.05;;;2.40;;
73266;SDS011;61495;53.400;7.608;2023-03-14T06:16:43;8.13;;;2.42;;
73266;SDS011;61495;53.400;7.608;2023-03-14T06:19:09;6.35;;;1.90;;
73266;SDS011;61495;53.400;7.608;2023-03-14T06:21:35;4.97;;;1.98;;
73266;SDS011;61495;53.400;7.608;2023-03-14T06:24:01;7.00;;;2.38;;
73266;SDS011;61495;53.400;7.608;2023-03-14T06:26:26;4.80;;;2.30;;
73266;SDS011;61495;53.400;7.608;2023-03-14T06:28:52;5.55;;;2.65;;
73266;SDS011;61495;53.400;7.608;2023-03-14T06:31:18;6.78;;;2.95;;
73266;SDS011;61495;53.400;7.608;2023-03-14T06:33:44;8.50;;;3.42;;
73266;SDS011;61495;53.400;7.608;2023-03-14T06:36:09;5.75;;;2.88;;
73266;SDS011;61495;53.400;7.608;2023-03-14T06:38:35;7.28;;;2.70;;
73266;SDS011;61495;53.400;7.608;2023-03-14T06:41:03;8.98;;;3.47;;
73266;SDS011;61495;53.400;7.608;2023-03-14T06:43:30;6.78;;;3.05;;
73266;SDS011;61495;53.400;7.608;2023-03-14T06:45:56;8.43;;;2.90;;
73266;SDS011;61495;53.400;7.608;2023-03-14T06:48:21;10.02;;;2.90;;
73266;SDS011;61495;53.400;7.608;2023-03-14T06:50:47;5.35;;;2.83;;
73266;SDS011;61495;53.400;7.608;2023-03-14T06:53:13;6.97;;;2.58;;
73266;SDS011;61495;53.400;7.608;2023-03-14T06:55:38;6.30;;;2.97;;
73266;SDS011;61495;53.400;7.608;2023-03-14T06:58:04;7.10;;;2.38;;
73266;SDS011;61495;53.400;7.608;2023-03-14T07:00:31;6.47;;;2.30;;
73266;SDS011;61495;53.400;7.608;2023-03-14T07:02:57;10.13;;;3.03;;
73266;SDS011;61495;53.400;7.608;2023-03-14T07:05:22;8.05;;;3.17;;
73266;SDS011;61495;53.400;7.608;2023-03-14T07:07:48;5.75;;;2.72;;
73266;SDS011;61495;53.400;7.608;2023-03-14T07:10:13;6.80;;;2.80;;
73266;SDS011;61495;53.400;7.608;2023-03-14T07:12:38;9.55;;;2.90;;
73266;SDS011;61495;53.400;7.608;2023-03-14T07:15:04;4.95;;;2.60;;
73266;SDS011;61495;53.400;7.608;2023-03-14T07:17:30;8.05;;;3.15;;
73266;SDS011;61495;53.400;7.608;2023-03-14T07:19:55;4.60;;;2.20;;
73266;SDS011;61495;53.400;7.608;2023-03-14T07:22:20;5.38;;;2.17;;
73266;SDS011;61495;53.400;7.608;2023-03-14T07:24:46;5.53;;;2.70;;
73266;SDS011;61495;53.400;7.608;2023-03-14T07:27:11;4.80;;;1.95;;
73266;SDS011;61495;53.400;7.608;2023-03-14T07:29:36;7.43;;;3.97;;
73266;SDS011;61495;53.400;7.608;2023-03-14T07:32:02;5.15;;;2.90;;
73266;SDS011;61495;53.400;7.608;2023-03-14T07:34:28;5.13;;;2.17;;
73266;SDS011;61495;53.400;7.608;2023-03-14T07:36:53;6.13;;;1.50;;
73266;SDS011;61495;53.400;7.608;2023-03-14T07:39:18;3.83;;;1.02;;
73266;SDS011;61495;53.400;7.608;2023-03-14T07:41:47;4.53;;;1.40;;
73266;SDS011;61495;53.400;7.608;2023-03-14T07:44:12;5.82;;;1.30;;
73266;SDS011;61495;53.400;7.608;2023-03-14T07:46:37;5.15;;;1.35;;
73266;SDS011;61495;53.400;7.608;2023-03-14T07:49:03;6.03;;;1.20;;
73266;SDS011;61495;53.400;7.608;2023-03-14T07:51:28;3.58;;;1.00;;
73266;SDS011;61495;53.400;7.608;2023-03-14T07:53:54;3.00;;;1.20;;
73266;SDS011;61495;53.400;7.608;2023-03-14T07:56:19;4.93;;;1.95;;
73266;SDS011;61495;53.400;7.608;2023-03-14T07:58:45;1.70;;;0.80;;
73266;SDS011;61495;53.400;7.608;2023-03-14T08:01:10;3.30;;;0.90;;
73266;SDS011;61495;53.400;7.608;2023-03-14T08:03:36;4.80;;;0.95;;
73266;SDS011;61495;53.400;7.608;2023-03-14T08:06:01;4.88;;;1.13;;
73266;SDS011;61495;53.400;7.608;2023-03-14T08:08:27;2.95;;;0.73;;
73266;SDS011;61495;53.400;7.608;2023-03-14T08:10:52;4.57;;;0.80;;
73266;SDS011;61495;53.400;7.608;2023-03-14T08:13:17;1.98;;;0.80;;
73266;SDS011;61495;53.400;7.608;2023-03-14T08:15:46;2.83;;;0.77;;
73266;SDS011;61495;53.400;7.608;2023-03-14T08:18:13;2.00;;;0.52;;
73266;SDS011;61495;53.400;7.608;2023-03-14T08:20:38;1.52;;;1.20;;
73266;SDS011;61495;53.400;7.608;2023-03-14T08:23:03;1.48;;;0.80;;
73266;SDS011;61495;53.400;7.608;2023-03-14T08:25:29;1.13;;;0.70;;
73266;SDS011;61495;53.400;7.608;2023-03-14T08:27:54;3.97;;;0.70;;
73266;SDS011;61495;53.400;7.608;2023-03-14T08:30:21;3.38;;;0.60;;
73266;SDS011;61495;53.400;7.608;2023-03-14T08:32:47;1.25;;;0.52;;
73266;SDS011;61495;53.400;7.608;2023-03-14T08:35:12;1.38;;;0.77;;
73266;SDS011;61495;53.400;7.608;2023-03-14T08:37:38;1.33;;;0.40;;
73266;SDS011;61495;53.400;7.608;2023-03-14T08:40:05;2.38;;;0.73;;
73266;SDS011;61495;53.400;7.608;2023-03-14T08:42:40;1.73;;;0.40;;
73266;SDS011;61495;53.400;7.608;2023-03-14T08:45:06;1.25;;;0.50;;
73266;SDS011;61495;53.400;7.608;2023-03-14T08:47:33;1.48;;;0.30;;
73266;SDS011;61495;53.400;7.608;2023-03-14T08:49:59;3.35;;;0.63;;
73266;SDS011;61495;53.400;7.608;2023-03-14T08:52:24;1.02;;;0.50;;
73266;SDS011;61495;53.400;7.608;2023-03-14T08:54:50;0.75;;;0.40;;
73266;SDS011;61495;53.400;7.608;2023-03-14T08:57:15;2.53;;;0.40;;
73266;SDS011;61495;53.400;7.608;2023-03-14T08:59:40;1.55;;;0.60;;
73266;SDS011;61495;53.400;7.608;2023-03-14T09:02:08;0.82;;;0.50;;
73266;SDS011;61495;53.400;7.608;2023-03-14T09:04:35;2.70;;;0.60;;
73266;SDS011;61495;53.400;7.608;2023-03-14T09:07:01;1.38;;;0.63;;
73266;SDS011;61495;53.400;7.608;2023-03-14T09:09:26;2.55;;;0.50;;
73266;SDS011;61495;53.400;7.608;2023-03-14T09:11:57;3.30;;;0.77;;
73266;SDS011;61495;53.400;7.608;2023-03-14T09:14:23;1.10;;;0.45;;
73266;SDS011;61495;53.400;7.608;2023-03-14T09:16:48;1.65;;;0.60;;
73266;SDS011;61495;53.400;7.608;2023-03-14T09:19:14;2.70;;;1.10;;
73266;SDS011;61495;53.400;7.608;2023-03-14T09:21:39;2.22;;;0.82;;
73266;SDS011;61495;53.400;7.608;2023-03-14T09:24:05;4.05;;;0.85;;
73266;SDS011;61495;53.400;7.608;2023-03-14T09:26:30;2.65;;;1.10;;
73266;SDS011;61495;53.400;7.608;2023-03-14T09:28:56;3.67;;;0.68;;
73266;SDS011;61495;53.400;7.608;2023-03-14T09:31:21;2.63;;;0.82;;
73266;SDS011;61495;53.400;7.608;2023-03-14T09:33:47;2.38;;;1.17;;
73266;SDS011;61495;53.400;7.608;2023-03-14T09:36:12;4.10;;;0.73;;
73266;SDS011;61495;53.400;7.608;2023-03-14T09:38:38;2.00;;;0.63;;
73266;SDS011;61495;53.400;7.608;2023-03-14T09:41:09;5.10;;;0.80;;
73266;SDS011;61495;53.400;7.608;2023-03-14T09:43:39;1.92;;;0.93;;
73266;SDS011;61495;53.400;7.608;2023-03-14T09:46:08;5.00;;;1.15;;
73266;SDS011;61495;53.400;7.608;2023-03-14T09:48:36;4.72;;;1.73;;
73266;SDS011;61495;53.400;7.608;2023-03-14T09:51:03;4.03;;;1.15;;
73266;SDS011;61495;53.400;7.608;2023-03-14T09:53:42;4.57;;;1.30;;
73266;SDS011;61495;53.400;7.608;2023-03-14T09:56:14;4.13;;;0.88;;
73266;SDS011;61495;53.400;7.608;2023-03-14T09:58:44;4.50;;;1.58;;
73266;SDS011;61495;53.400;7.608;2023-03-14T10:01:14;3.17;;;1.17;;
73266;SDS011;61495;53.400;7.608;2023-03-14T10:03:42;5.40;;;1.42;;
73266;SDS011;61495;53.400;7.608;2023-03-14T10:06:13;5.85;;;2.22;;
73266;SDS011;61495;53.400;7.608;2023-03-14T10:08:42;8.43;;;2.30;;
73266;SDS011;61495;53.400;7.608;2023-03-14T10:11:16;7.32;;;1.48;;
73266;SDS011;61495;53.400;7.608;2023-03-14T10:18:54;6.38;;;1.30;;
73266;SDS011;61495;53.400;7.608;2023-03-14T10:21:27;6.63;;;1.73;;
73266;SDS011;61495;53.400;7.608;2023-03-14T10:23:53;5.10;;;1.33;;
73266;SDS011;61495;53.400;7.608;2023-03-14T10:26:28;11.00;;;2.03;;
73266;SDS011;61495;53.400;7.608;2023-03-14T10:29:02;7.38;;;1.90;;
73266;SDS011;61495;53.400;7.608;2023-03-14T10:34:36;5.55;;;1.40;;
73266;SDS011;61495;53.400;7.608;2023-03-14T10:39:51;8.20;;;1.45;;
73266;SDS011;61495;53.400;7.608;2023-03-14T10:44:57;8.52;;;1.63;;
73266;SDS011;61495;53.400;7.608;2023-03-14T10:47:26;10.77;;;2.10;;
73266;SDS011;61495;53.400;7.608;2023-03-14T10:49:53;9.25;;;1.65;;
73266;SDS011;61495;53.400;7.608;2023-03-14T10:52:20;7.55;;;1.85;;
73266;SDS011;61495;53.400;7.608;2023-03-14T10:54:50;8.45;;;2.03;;
73266;SDS011;61495;53.400;7.608;2023-03-14T10:57:21;7.13;;;1.67;;
73266;SDS011;61495;53.400;7.608;2023-03-14T10:59:47;9.18;;;1.88;;
73266;SDS011;61495;53.400;7.608;2023-03-14T11:07:43;8.57;;;1.60;;
73266;SDS011;61495;53.400;7.608;2023-03-14T11:15:45;10.15;;;1.95;;
73266;SDS011;61495;53.400;7.608;2023-03-14T11:24:00;11.52;;;1.83;;
73266;SDS011;61495;53.400;7.608;2023-03-14T11:29:10;5.40;;;1.42;;
73266;SDS011;61495;53.400;7.608;2023-03-14T11:31:46;8.65;;;1.70;;
73266;SDS011;61495;53.400;7.608;2023-03-14T11:36:55;4.47;;;1.55;;
73266;SDS011;61495;53.400;7.608;2023-03-14T11:39:26;8.05;;;1.13;;
73266;SDS011;61495;53.400;7.608;2023-03-14T11:42:00;8.10;;;1.50;;
73266;SDS011;61495;53.400;7.608;2023-03-14T11:44:32;5.85;;;1.48;;
73266;SDS011;61495;53.400;7.608;2023-03-14T11:47:10;9.20;;;1.42;;
73266;SDS011;61495;53.400;7.608;2023-03-14T11:49:51;4.68;;;1.20;;
73266;SDS011;61495;53.400;7.608;2023-03-14T11:52:41;5.78;;;1.63;;
73266;SDS011;61495;53.400;7.608;2023-03-14T11:55:17;7.03;;;1.80;;
73266;SDS011;61495;53.400;7.608;2023-03-14T11:57:55;3.85;;;1.15;;
73266;SDS011;61495;53.400;7.608;2023-03-14T12:00:25;4.97;;;1.55;;
73266;SDS011;61495;53.400;7.608;2023-03-14T12:10:46;6.18;;;1.33;;
73266;SDS011;61495;53.400;7.608;2023-03-14T12:13:28;3.03;;;1.17;;
73266;SDS011;61495;53.400;7.608;2023-03-14T12:15:57;7.18;;;1.50;;
73266;SDS011;61495;53.400;7.608;2023-03-14T12:18:28;7.63;;;1.20;;
73266;SDS011;61495;53.400;7.608;2023-03-14T12:20:56;3.83;;;1.13;;
73266;SDS011;61495;53.400;7.608;2023-03-14T12:23:25;4.18;;;1.15;;
73266;SDS011;61495;53.400;7.608;2023-03-14T12:26:13;5.88;;;1.52;;
73266;SDS011;61495;53.400;7.608;2023-03-14T12:28:39;4.25;;;1.55;;
73266;SDS011;61495;53.400;7.608;2023-03-14T12:42:07;4.15;;;1.70;;
73266;SDS011;61495;53.400;7.608;2023-03-14T12:45:24;5.28;;;1.27;;
73266;SDS011;61495;53.400;7.608;2023-03-14T12:47:42;6.40;;;1.58;;
73266;SDS011;61495;53.400;7.608;2023-03-14T12:50:19;4.57;;;1.20;;
73266;SDS011;61495;53.400;7.608;2023-03-14T12:55:49;2.92;;;1.60;;
73266;SDS011;61495;53.400;7.608;2023-03-14T13:01:30;6.15;;;1.20;;
73266;SDS011;61495;53.400;7.608;2023-03-14T13:04:03;3.50;;;1.25;;
73266;SDS011;61495;53.400;7.608;2023-03-14T13:11:50;4.50;;;1.40;;
73266;SDS011;61495;53.400;7.608;2023-03-14T13:14:18;5.80;;;1.45;;
73266;SDS011;61495;53.400;7.608;2023-03-14T13:16:44;4.95;;;0.98;;
73266;SDS011;61495;53.400;7.608;2023-03-14T13:19:16;8.75;;;1.10;;
73266;SDS011;61495;53.400;7.608;2023-03-14T13:21:45;4.00;;;2.15;;
73266;SDS011;61495;53.400;7.608;2023-03-14T13:26:47;10.00;;;1.60;;
73266;SDS011;61495;53.400;7.608;2023-03-14T13:29:22;5.35;;;1.17;;
73266;SDS011;61495;53.400;7.608;2023-03-14T13:31:50;6.57;;;1.52;;
73266;SDS011;61495;53.400;7.608;2023-03-14T13:34:18;6.43;;;1.98;;
73266;SDS011;61495;53.400;7.608;2023-03-14T13:36:43;5.57;;;1.73;;
73266;SDS011;61495;53.400;7.608;2023-03-14T13:39:13;6.30;;;2.03;;
73266;SDS011;61495;53.400;7.608;2023-03-14T13:41:42;7.07;;;1.45;;
73266;SDS011;61495;53.400;7.608;2023-03-14T13:44:08;6.70;;;1.30;;
73266;SDS011;61495;53.400;7.608;2023-03-14T13:46:40;6.97;;;1.75;;
73266;SDS011;61495;53.400;7.608;2023-03-14T13:49:09;4.38;;;1.20;;
73266;SDS011;61495;53.400;7.608;2023-03-14T13:51:38;5.20;;;1.25;;
73266;SDS011;61495;53.400;7.608;2023-03-14T13:54:11;5.97;;;1.83;;
73266;SDS011;61495;53.400;7.608;2023-03-14T13:56:38;7.47;;;1.20;;
73266;SDS011;61495;53.400;7.608;2023-03-14T13:59:04;3.95;;;1.20;;
73266;SDS011;61495;53.400;7.608;2023-03-14T14:04:18;7.47;;;1.55;;
73266;SDS011;61495;53.400;7.608;2023-03-14T14:06:50;6.00;;;2.05;;
73266;SDS011;61495;53.400;7.608;2023-03-14T14:12:05;5.13;;;1.27;;
73266;SDS011;61495;53.400;7.608;2023-03-14T14:14:42;7.80;;;1.90;;
73266;SDS011;61495;53.400;7.608;2023-03-14T14:17:13;4.43;;;1.40;;
73266;SDS011;61495;53.400;7.608;2023-03-14T14:19:43;7.38;;;1.83;;
73266;SDS011;61495;53.400;7.608;2023-03-14T14:22:09;6.25;;;1.38;;
73266;SDS011;61495;53.400;7.608;2023-03-14T14:24:36;6.13;;;1.00;;
73266;SDS011;61495;53.400;7.608;2023-03-14T14:27:12;10.88;;;1.33;;
73266;SDS011;61495;53.400;7.608;2023-03-14T14:29:40;5.63;;;1.73;;
73266;SDS011;61495;53.400;7.608;2023-03-14T14:39:44;5.60;;;1.10;;
73266;SDS011;61495;53.400;7.608;2023-03-14T14:42:15;6.25;;;1.55;;
73266;SDS011;61495;53.400;7.608;2023-03-14T14:44:43;6.95;;;2.03;;
73266;SDS011;61495;53.400;7.608;2023-03-14T14:47:13;5.30;;;1.00;;
73266;SDS011;61495;53.400;7.608;2023-03-14T14:49:40;6.53;;;1.17;;
73266;SDS011;61495;53.400;7.608;2023-03-14T14:57:19;4.60;;;1.13;;
73266;SDS011;61495;53.400;7.608;2023-03-14T14:59:57;9.38;;;1.85;;
73266;SDS011;61495;53.400;7.608;2023-03-14T15:02:37;3.30;;;1.17;;
73266;SDS011;61495;53.400;7.608;2023-03-14T15:05:19;5.10;;;1.40;;
73266;SDS011;61495;53.400;7.608;2023-03-14T15:07:46;7.13;;;1.42;;
73266;SDS011;61495;53.400;7.608;2023-03-14T15:10:13;4.00;;;0.98;;
73266;SDS011;61495;53.400;7.608;2023-03-14T15:12:43;6.15;;;1.38;;
73266;SDS011;61495;53.400;7.608;2023-03-14T15:15:09;4.65;;;1.65;;
73266;SDS011;61495;53.400;7.608;2023-03-14T15:17:35;8.32;;;2.70;;
73266;SDS011;61495;53.400;7.608;2023-03-14T15:20:03;7.50;;;1.70;;
73266;SDS011;61495;53.400;7.608;2023-03-14T15:22:29;6.38;;;1.20;;
73266;SDS011;61495;53.400;7.608;2023-03-14T15:24:55;6.70;;;1.25;;
73266;SDS011;61495;53.400;7.608;2023-03-14T15:27:20;7.45;;;1.48;;
73266;SDS011;61495;53.400;7.608;2023-03-14T15:29:46;6.00;;;1.60;;
73266;SDS011;61495;53.400;7.608;2023-03-14T15:32:12;6.07;;;1.85;;
73266;SDS011;61495;53.400;7.608;2023-03-14T15:34:40;11.27;;;1.70;;
73266;SDS011;61495;53.400;7.608;2023-03-14T15:37:09;5.25;;;1.55;;
73266;SDS011;61495;53.400;7.608;2023-03-14T15:39:36;6.65;;;1.15;;
73266;SDS011;61495;53.400;7.608;2023-03-14T15:42:06;5.88;;;1.33;;
73266;SDS011;61495;53.400;7.608;2023-03-14T15:44:31;10.05;;;1.85;;
73266;SDS011;61495;53.400;7.608;2023-03-14T15:46:57;8.07;;;1.48;;
73266;SDS011;61495;53.400;7.608;2023-03-14T15:49:22;8.52;;;1.40;;
73266;SDS011;61495;53.400;7.608;2023-03-14T15:51:47;7.82;;;1.88;;
73266;SDS011;61495;53.400;7.608;2023-03-14T15:54:13;6.53;;;1.35;;
73266;SDS011;61495;53.400;7.608;2023-03-14T15:56:39;6.70;;;1.42;;
73266;SDS011;61495;53.400;7.608;2023-03-14T15:59:04;5.47;;;1.05;;
73266;SDS011;61495;53.400;7.608;2023-03-14T16:01:29;4.15;;;1.25;;
73266;SDS011;61495;53.400;7.608;2023-03-14T16:03:55;5.07;;;1.13;;
73266;SDS011;61495;53.400;7.608;2023-03-14T16:06:20;7.45;;;1.85;;
73266;SDS011;61495;53.400;7.608;2023-03-14T16:08:46;7.22;;;1.88;;
73266;SDS011;61495;53.400;7.608;2023-03-14T16:11:15;5.35;;;1.50;;
73266;SDS011;61495;53.400;7.608;2023-03-14T16:13:42;4.82;;;1.67;;
73266;SDS011;61495;53.400;7.608;2023-03-14T16:16:08;6.95;;;1.20;;
73266;SDS011;61495;53.400;7.608;2023-03-14T16:18:35;5.90;;;0.80;;
73266;SDS011;61495;53.400;7.608;2023-03-14T16:21:05;2.20;;;0.70;;
73266;SDS011;61495;53.400;7.608;2023-03-14T16:23:34;5.93;;;1.45;;
73266;SDS011;61495;53.400;7.608;2023-03-14T16:26:02;2.83;;;0.88;;